createdAt,value
2023-02-03T00:01:46.812Z,9.71
2023-02-03T00:04:13.605Z,9.68
2023-02-03T00:06:40.843Z,9.84
2023-02-03T00:09:07.491Z,9.50
2023-02-03T00:11:34.143Z,9.89
2023-02-03T00:14:00.767Z,9.62
2023-02-03T00:16:27.392Z,9.65
2023-02-03T00:18:54.111Z,9.38
2023-02-03T00:21:20.649Z,9.54
2023-02-03T00:23:47.210Z,9.45
2023-02-03T00:26:16.964Z,9.46
2023-02-03T00:28:44.209Z,9.54
2023-02-03T00:31:23.014Z,9.27
2023-02-03T00:33:54.971Z,9.32
2023-02-03T00:36:22.365Z,9.46
2023-02-03T00:38:50.330Z,9.34
2023-02-03T00:41:17.647Z,9.50
2023-02-03T00:43:44.465Z,9.31
2023-02-03T00:46:11.337Z,9.41
2023-02-03T00:48:37.896Z,9.53
2023-02-03T00:51:05.117Z,9.36
2023-02-03T00:53:34.379Z,9.67
2023-02-03T00:56:00.871Z,9.50
2023-02-03T00:58:27.432Z,9.43
2023-02-03T01:00:57.424Z,9.40
2023-02-03T01:03:24.246Z,9.47
2023-02-03T01:05:51.091Z,9.46
2023-02-03T01:08:17.774Z,9.39
2023-02-03T01:10:44.321Z,9.53
2023-02-03T01:13:10.830Z,9.44
2023-02-03T01:15:37.861Z,9.42
2023-02-03T01:18:04.329Z,9.27
2023-02-03T01:20:30.811Z,9.43
2023-02-03T01:22:57.631Z,9.45
2023-02-03T01:25:24.216Z,9.60
2023-02-03T01:27:50.701Z,9.44
2023-02-03T01:30:17.741Z,9.44
2023-02-03T01:32:44.247Z,9.36
2023-02-03T01:35:10.720Z,9.25
2023-02-03T01:37:37.367Z,9.79
2023-02-03T01:40:04.303Z,9.57
2023-02-03T01:42:33.907Z,9.52
2023-02-03T01:45:00.626Z,9.38
2023-02-03T01:47:36.314Z,9.40
2023-02-03T01:50:23.888Z,9.20
2023-02-03T01:52:58.896Z,9.49
2023-02-03T01:55:31.982Z,9.41
2023-02-03T01:58:08.559Z,9.63
2023-02-03T02:00:35.076Z,9.22
2023-02-03T02:03:04.917Z,9.27
2023-02-03T02:05:42.644Z,9.50
2023-02-03T02:08:09.913Z,9.26
2023-02-03T02:10:36.460Z,9.12
2023-02-03T02:13:04.879Z,9.14
2023-02-03T02:15:47.733Z,9.16
2023-02-03T02:18:26.210Z,9.24
2023-02-03T02:21:11.683Z,9.21
2023-02-03T02:23:50.409Z,8.99
2023-02-03T02:26:45.065Z,9.03
2023-02-03T02:29:26.410Z,8.90
2023-02-03T02:32:28.458Z,9.01
2023-02-03T02:35:16.913Z,8.95
2023-02-03T02:37:52.704Z,9.16
2023-02-03T02:40:35.843Z,9.36
2023-02-03T02:43:11.025Z,9.16
2023-02-03T02:45:45.936Z,9.13
2023-02-03T02:48:42.053Z,9.07
2023-02-03T02:51:09.918Z,9.31
2023-02-03T02:53:40.397Z,9.14
2023-02-03T02:56:11.637Z,9.35
2023-02-03T02:58:40.674Z,9.21
2023-02-03T03:01:09.776Z,9.10
2023-02-03T03:03:40.713Z,9.28
2023-02-03T03:06:14.464Z,9.20
2023-02-03T03:08:48.533Z,9.17
2023-02-03T03:11:16.018Z,9.27
2023-02-03T03:13:48.153Z,9.12
2023-02-03T03:16:17.625Z,9.21
2023-02-03T03:19:06.060Z,9.24
2023-02-03T03:21:45.682Z,9.20
2023-02-03T03:24:17.458Z,9.27
2023-02-03T03:26:52.041Z,9.28
2023-02-03T03:29:22.424Z,9.40
2023-02-03T03:31:49.176Z,9.20
2023-02-03T03:34:17.646Z,9.42
2023-02-03T03:36:48.622Z,9.40
2023-02-03T03:39:30.120Z,9.42
2023-02-03T03:41:58.662Z,9.38
2023-02-03T03:44:35.262Z,9.28
2023-02-03T03:47:12.288Z,9.34
2023-02-03T03:49:42.050Z,9.21
2023-02-03T03:52:10.816Z,9.31
2023-02-03T03:54:38.774Z,9.37
2023-02-03T03:57:21.287Z,9.52
2023-02-03T03:59:49.525Z,9.40
2023-02-03T04:02:19.149Z,9.21
2023-02-03T04:04:46.856Z,8.97
2023-02-03T04:07:14.786Z,9.03
2023-02-03T04:09:42.962Z,8.76
2023-02-03T04:12:29.896Z,8.91
2023-02-03T04:14:56.432Z,8.70
2023-02-03T04:17:23.002Z,8.82
2023-02-03T04:19:49.588Z,8.93
2023-02-03T04:22:16.185Z,8.98
2023-02-03T04:24:42.678Z,8.89
2023-02-03T04:27:09.370Z,8.89
2023-02-03T04:29:35.861Z,8.96
2023-02-03T04:32:02.447Z,8.86
2023-02-03T04:34:29.128Z,9.10
2023-02-03T04:36:55.728Z,8.93
2023-02-03T04:39:22.627Z,8.92
2023-02-03T04:41:49.132Z,8.95
2023-02-03T04:44:15.700Z,8.73
2023-02-03T04:46:42.183Z,8.86
2023-02-03T04:49:11.749Z,8.83
2023-02-03T04:51:38.465Z,8.70
2023-02-03T04:54:05.011Z,8.91
2023-02-03T04:56:31.559Z,8.96
2023-02-03T04:58:58.085Z,8.96
2023-02-03T05:01:24.612Z,8.71
2023-02-03T05:03:51.243Z,8.89
2023-02-03T05:06:17.832Z,9.02
2023-02-03T05:08:44.300Z,8.78
2023-02-03T05:11:10.911Z,8.79
2023-02-03T05:13:37.495Z,8.92
2023-02-03T05:16:04.295Z,8.82
2023-02-03T05:18:30.920Z,9.01
2023-02-03T05:20:57.383Z,8.86
2023-02-03T05:23:24.099Z,8.68
2023-02-03T05:25:50.880Z,8.59
2023-02-03T05:28:17.496Z,8.58
2023-02-03T05:30:44.297Z,8.61
2023-02-03T05:33:11.077Z,8.73
2023-02-03T05:35:37.687Z,8.73
2023-02-03T05:38:04.478Z,8.66
2023-02-03T05:40:49.682Z,8.73
2023-02-03T05:43:16.209Z,8.59
2023-02-03T05:45:43.104Z,8.90
2023-02-03T05:48:09.702Z,8.76
2023-02-03T05:50:38.580Z,8.70
2023-02-03T05:53:06.481Z,9.06
2023-02-03T05:55:33.449Z,9.06
2023-02-03T05:58:01.117Z,9.03
2023-02-03T06:00:28.953Z,8.88
2023-02-03T06:02:58.211Z,8.90
2023-02-03T06:05:25.853Z,8.85
2023-02-03T06:07:52.541Z,8.99
2023-02-03T06:10:19.339Z,8.96
2023-02-03T06:12:46.169Z,9.08
2023-02-03T06:15:12.998Z,8.99
2023-02-03T06:17:39.800Z,8.85
2023-02-03T06:20:09.278Z,8.90
2023-02-03T06:22:35.873Z,8.96
2023-02-03T06:25:02.424Z,9.09
2023-02-03T06:27:28.969Z,8.90
2023-02-03T06:29:55.745Z,9.14
2023-02-03T06:32:22.372Z,9.20
2023-02-03T06:34:48.884Z,8.96
2023-02-03T06:37:15.423Z,8.99
2023-02-03T06:39:42.051Z,9.21
2023-02-03T06:42:08.682Z,9.01
2023-02-03T06:44:35.259Z,9.05
2023-02-03T06:47:04.696Z,9.11
2023-02-03T06:49:31.215Z,9.30
2023-02-03T06:51:57.866Z,9.21
2023-02-03T06:54:24.398Z,8.93
2023-02-03T06:56:50.884Z,9.04
2023-02-03T06:59:17.512Z,9.05
2023-02-03T07:01:44.169Z,9.28
2023-02-03T07:04:10.724Z,9.01
2023-02-03T07:06:37.287Z,9.28
2023-02-03T07:09:05.531Z,9.49
2023-02-03T07:11:32.362Z,9.25
2023-02-03T07:13:58.964Z,9.26
2023-02-03T07:16:27.500Z,9.14
2023-02-03T07:18:54.075Z,9.00
2023-02-03T07:21:20.753Z,9.12
2023-02-03T07:23:48.769Z,9.12
2023-02-03T07:26:16.370Z,9.16
2023-02-03T07:28:43.108Z,8.97
2023-02-03T07:31:10.647Z,8.98
2023-02-03T07:33:38.379Z,8.99
2023-02-03T07:36:05.681Z,8.98
2023-02-03T07:38:32.434Z,9.11
2023-02-03T07:40:58.947Z,9.06
2023-02-03T07:43:25.671Z,9.05
2023-02-03T07:45:52.267Z,9.09
2023-02-03T07:48:18.773Z,9.22
2023-02-03T07:50:45.839Z,9.34
2023-02-03T07:53:12.425Z,9.26
2023-02-03T07:55:40.036Z,8.98
2023-02-03T07:58:07.061Z,8.99
2023-02-03T08:00:33.831Z,8.86
2023-02-03T08:03:00.312Z,9.00
2023-02-03T08:05:26.977Z,8.76
2023-02-03T08:07:53.594Z,8.81
2023-02-03T08:10:20.376Z,8.73
2023-02-03T08:12:48.073Z,8.88
2023-02-03T08:15:15.244Z,8.99
2023-02-03T08:17:42.151Z,8.97
2023-02-03T08:20:09.619Z,8.89
2023-02-03T08:22:36.392Z,9.18
2023-02-03T08:25:03.987Z,9.09
2023-02-03T08:27:31.806Z,9.08
2023-02-03T08:29:58.490Z,9.36
2023-02-03T08:32:25.204Z,9.36
2023-02-03T08:37:36.835Z,9.44
2023-02-03T08:40:04.508Z,9.09
2023-02-03T08:42:31.243Z,9.40
2023-02-03T08:44:58.007Z,9.44
2023-02-03T08:47:25.101Z,9.47
2023-02-03T08:49:51.733Z,9.46
2023-02-03T08:52:19.230Z,9.41
2023-02-03T08:54:46.170Z,9.37
2023-02-03T08:57:12.879Z,9.54
2023-02-03T08:59:41.115Z,9.54
2023-02-03T09:02:11.279Z,9.79
2023-02-03T09:04:37.875Z,9.91
2023-02-03T09:07:04.551Z,9.88
2023-02-03T09:09:32.009Z,9.85
2023-02-03T09:12:02.391Z,9.83
2023-02-03T09:14:30.239Z,9.79
2023-02-03T09:16:57.095Z,9.65
2023-02-03T09:19:23.631Z,9.89
2023-02-03T09:21:50.873Z,9.70
2023-02-03T09:24:18.406Z,9.87
2023-02-03T09:26:45.370Z,9.84
2023-02-03T09:29:12.025Z,9.92
2023-02-03T09:31:38.706Z,10.00
2023-02-03T09:34:05.235Z,10.04
2023-02-03T09:36:31.978Z,10.00
2023-02-03T09:38:58.580Z,9.99
2023-02-03T09:41:52.289Z,10.02
2023-02-03T09:44:29.869Z,10.31
2023-02-03T09:47:22.019Z,10.24
2023-02-03T09:49:50.988Z,10.39
2023-02-03T09:52:25.090Z,10.18
2023-02-03T09:54:57.658Z,10.50
2023-02-03T09:57:31.460Z,10.49
2023-02-03T10:00:02.318Z,10.51
2023-02-03T10:03:04.184Z,10.81
2023-02-03T10:05:48.642Z,11.03
2023-02-03T10:08:27.163Z,10.98
2023-02-03T10:11:24.095Z,10.58
2023-02-03T10:14:21.429Z,10.38
2023-02-03T10:17:09.950Z,10.47
2023-02-03T10:19:48.516Z,10.78
2023-02-03T10:22:20.173Z,11.09
2023-02-03T10:24:52.753Z,11.45
2023-02-03T10:27:22.316Z,11.50
2023-02-03T10:30:00.820Z,11.29
2023-02-03T10:32:27.744Z,10.88
2023-02-03T10:34:55.175Z,11.24
2023-02-03T10:37:32.135Z,11.00
2023-02-03T10:40:01.173Z,11.29
2023-02-03T10:42:50.432Z,11.12
2023-02-03T10:45:17.321Z,10.72
2023-02-03T10:47:48.454Z,10.49
2023-02-03T10:50:22.239Z,10.45
2023-02-03T10:52:48.988Z,10.70
2023-02-03T10:55:27.059Z,10.72
2023-02-03T10:57:55.127Z,10.89
2023-02-03T11:00:30.576Z,10.68
2023-02-03T11:03:05.036Z,10.93
2023-02-03T11:05:31.662Z,10.62
2023-02-03T11:07:58.329Z,10.86
2023-02-03T11:10:35.970Z,11.06
2023-02-03T11:13:22.236Z,11.07
2023-02-03T11:16:02.743Z,11.02
2023-02-03T11:18:40.020Z,11.00
2023-02-03T11:21:09.875Z,11.08
2023-02-03T11:23:37.563Z,11.17
2023-02-03T11:26:15.878Z,11.12
2023-02-03T11:28:45.870Z,10.76
2023-02-03T11:31:18.758Z,10.98
2023-02-03T11:33:51.285Z,11.17
2023-02-03T11:36:19.181Z,11.14
2023-02-03T11:38:45.946Z,11.24
2023-02-03T11:41:18.158Z,11.12
2023-02-03T11:43:45.154Z,11.10
2023-02-03T11:46:12.567Z,11.25
2023-02-03T11:48:50.830Z,11.21
2023-02-03T11:51:42.886Z,11.18
2023-02-03T11:54:28.698Z,11.30
2023-02-03T11:57:22.801Z,11.54
2023-02-03T12:00:17.451Z,11.60
2023-02-03T12:03:17.674Z,11.40
2023-02-03T12:06:11.954Z,11.27
2023-02-03T12:08:55.218Z,11.09
2023-02-03T12:11:47.326Z,10.98
2023-02-03T12:14:25.379Z,10.94
2023-02-03T12:17:10.622Z,11.40
2023-02-03T12:20:02.197Z,11.49
2023-02-03T12:22:31.589Z,11.77
2023-02-03T12:25:20.038Z,11.66
2023-02-03T12:28:00.303Z,11.32
2023-02-03T12:30:39.284Z,11.20
2023-02-03T12:33:23.561Z,11.13
2023-02-03T12:36:20.334Z,11.15
2023-02-03T12:38:57.271Z,11.40
2023-02-03T12:41:36.544Z,11.44
2023-02-03T12:44:15.119Z,11.21
2023-02-03T12:46:49.229Z,11.09
2023-02-03T12:49:35.007Z,11.24
2023-02-03T12:52:17.367Z,10.89
2023-02-03T12:55:01.002Z,11.21
2023-02-03T12:57:27.489Z,11.18
2023-02-03T13:00:27.073Z,11.47
2023-02-03T13:02:56.790Z,11.21
2023-02-03T13:05:30.325Z,11.15
2023-02-03T13:08:08.426Z,10.82
2023-02-03T13:10:55.022Z,10.52
2023-02-03T13:13:31.589Z,10.38
2023-02-03T13:16:00.444Z,10.51
2023-02-03T13:18:32.759Z,10.66
2023-02-03T13:20:59.408Z,10.66
2023-02-03T13:23:26.924Z,10.61
2023-02-03T13:26:08.671Z,10.71
2023-02-03T13:28:48.541Z,10.86
2023-02-03T13:31:36.469Z,10.88
2023-02-03T13:34:24.842Z,10.75
2023-02-03T13:37:03.444Z,10.59
2023-02-03T13:39:35.719Z,10.55
2023-02-03T13:42:24.447Z,10.76
2023-02-03T13:44:56.765Z,10.72
2023-02-03T13:47:33.238Z,10.73
2023-02-03T13:50:16.237Z,10.59
2023-02-03T13:52:56.284Z,10.73
2023-02-03T13:55:39.347Z,10.70
2023-02-03T13:58:18.675Z,10.66
2023-02-03T14:00:45.168Z,10.60
2023-02-03T14:03:27.022Z,10.54
2023-02-03T14:05:58.565Z,10.60
2023-02-03T14:08:28.161Z,10.44
2023-02-03T14:11:32.253Z,10.99
2023-02-03T14:14:07.882Z,10.92
2023-02-03T14:16:39.689Z,10.87
2023-02-03T14:19:33.474Z,11.03
2023-02-03T14:22:06.792Z,11.01
2023-02-03T14:24:39.212Z,10.76
2023-02-03T14:27:19.049Z,11.09
2023-02-03T14:29:46.308Z,11.04
2023-02-03T14:32:13.689Z,10.54
2023-02-03T14:34:45.763Z,10.55
2023-02-03T14:37:35.646Z,10.61
2023-02-03T14:40:20.471Z,10.47
2023-02-03T14:43:11.487Z,10.35
2023-02-03T14:46:00.618Z,10.27
2023-02-03T14:48:33.164Z,10.35
2023-02-03T14:51:32.540Z,10.64
2023-02-03T14:54:21.802Z,10.50
2023-02-03T14:57:16.197Z,10.56
2023-02-03T14:59:47.850Z,10.83
2023-02-03T15:02:19.229Z,10.63
2023-02-03T15:04:47.870Z,10.79
2023-02-03T15:07:37.781Z,10.74
2023-02-03T15:10:13.304Z,10.67
2023-02-03T15:12:45.527Z,10.65
2023-02-03T15:15:21.242Z,10.64
2023-02-03T15:17:49.095Z,10.77
2023-02-03T15:20:34.428Z,10.62
2023-02-03T15:23:02.684Z,10.72
2023-02-03T15:25:31.374Z,10.54
2023-02-03T15:28:12.249Z,10.61
2023-02-03T15:30:40.900Z,10.57
2023-02-03T15:33:17.094Z,10.79
2023-02-03T15:35:46.613Z,10.51
2023-02-03T15:38:17.618Z,10.42
2023-02-03T15:40:49.160Z,10.70
2023-02-03T15:43:18.752Z,10.69
2023-02-03T15:46:18.762Z,10.62
2023-02-03T15:48:51.198Z,10.73
2023-02-03T15:51:22.893Z,10.62
2023-02-03T15:53:52.181Z,10.47
2023-02-03T15:56:26.740Z,10.46
2023-02-03T15:58:53.379Z,10.51
2023-02-03T16:01:24.040Z,10.43
2023-02-03T16:03:53.561Z,10.14
2023-02-03T16:06:26.682Z,10.39
2023-02-03T16:08:54.877Z,10.19
2023-02-03T16:11:21.437Z,9.98
2023-02-03T16:13:48.027Z,10.07
2023-02-03T16:16:19.383Z,10.09
2023-02-03T16:18:53.665Z,10.09
2023-02-03T16:21:37.808Z,10.05
2023-02-03T16:24:06.320Z,10.10
2023-02-03T16:26:36.407Z,9.83
2023-02-03T16:29:29.219Z,9.72
2023-02-03T16:32:14.780Z,9.93
2023-02-03T16:35:00.104Z,9.70
2023-02-03T16:38:01.555Z,9.80
2023-02-03T16:40:46.614Z,9.87
2023-02-03T16:43:33.826Z,9.82
2023-02-03T16:46:20.001Z,9.69
2023-02-03T16:49:05.534Z,9.70
2023-02-03T16:51:42.298Z,9.70
2023-02-03T16:54:13.635Z,9.85
2023-02-03T16:56:40.886Z,9.76
2023-02-03T16:59:07.828Z,9.74
2023-02-03T17:01:34.438Z,9.67
2023-02-03T17:04:01.056Z,9.58
2023-02-03T17:06:27.958Z,9.35
2023-02-03T17:08:56.629Z,9.27
2023-02-03T17:11:24.402Z,9.10
2023-02-03T17:13:51.063Z,9.24
2023-02-03T17:16:23.332Z,9.22
2023-02-03T17:18:50.771Z,9.38
2023-02-03T17:21:26.581Z,9.23
2023-02-03T17:23:53.244Z,9.55
2023-02-03T17:26:19.764Z,9.49
2023-02-03T17:28:46.843Z,9.19
2023-02-03T17:31:16.987Z,9.19
2023-02-03T17:33:44.557Z,9.54
2023-02-03T17:36:17.050Z,9.49
2023-02-03T17:55:22.075Z,9.15
2023-02-03T17:57:48.692Z,9.01
2023-02-03T18:00:15.674Z,9.07
2023-02-03T18:02:43.253Z,8.84
2023-02-03T18:05:10.231Z,8.82
2023-02-03T18:07:36.722Z,8.83
2023-02-03T18:10:03.772Z,8.87
2023-02-03T18:12:30.574Z,8.95
2023-02-03T18:14:57.821Z,8.77
2023-02-03T18:17:24.452Z,8.84
2023-02-03T18:19:55.798Z,8.79
2023-02-03T18:22:23.112Z,8.70
2023-02-03T18:24:52.741Z,8.60
2023-02-03T18:27:19.606Z,8.50
2023-02-03T18:29:48.106Z,8.54
2023-02-03T18:32:16.009Z,8.38
2023-02-03T18:34:42.642Z,8.24
2023-02-03T18:37:09.323Z,8.37
2023-02-03T18:39:36.016Z,8.59
2023-02-03T18:42:03.263Z,8.66
2023-02-03T18:44:31.619Z,8.92
2023-02-03T18:47:06.805Z,8.70
2023-02-03T18:49:35.613Z,8.50
2023-02-03T18:52:02.518Z,8.41
2023-02-03T18:54:29.745Z,8.40
2023-02-03T18:56:59.012Z,8.45
2023-02-03T18:59:25.929Z,8.26
2023-02-03T19:01:52.827Z,8.11
2023-02-03T19:04:19.371Z,7.97
2023-02-03T19:06:46.025Z,8.05
2023-02-03T19:09:15.320Z,8.12
2023-02-03T19:11:41.896Z,7.91
2023-02-03T19:14:08.627Z,7.80
2023-02-03T19:16:35.316Z,7.82
2023-02-03T19:19:02.255Z,7.80
2023-02-03T19:21:28.824Z,7.69
2023-02-03T19:23:55.377Z,7.49
2023-02-03T19:26:21.932Z,7.60
2023-02-03T19:28:48.544Z,7.53
2023-02-03T19:31:15.854Z,7.43
2023-02-03T19:33:42.532Z,7.55
2023-02-03T19:36:09.281Z,7.72
2023-02-03T19:38:36.475Z,7.72
2023-02-03T19:41:03.404Z,7.70
2023-02-03T19:43:31.370Z,7.51
2023-02-03T19:45:58.469Z,7.60
2023-02-03T19:48:25.210Z,7.65
2023-02-03T19:50:51.738Z,7.82
2023-02-03T19:53:18.580Z,7.81
2023-02-03T19:55:46.244Z,7.61
2023-02-03T19:58:14.478Z,7.70
2023-02-03T20:00:42.171Z,7.66
2023-02-03T20:03:09.023Z,7.69
2023-02-03T20:05:36.356Z,7.53
2023-02-03T20:08:03.681Z,7.60
2023-02-03T20:10:32.510Z,7.61
2023-02-03T20:12:59.399Z,7.57
2023-02-03T20:15:27.008Z,7.49
2023-02-03T20:17:54.037Z,7.57
2023-02-03T20:20:21.025Z,7.51
2023-02-03T20:22:48.212Z,7.47
2023-02-03T20:25:14.916Z,7.48
2023-02-03T20:27:41.670Z,7.45
2023-02-03T20:30:08.944Z,7.55
2023-02-03T20:32:36.442Z,7.56
2023-02-03T20:35:04.985Z,7.63
2023-02-03T20:37:32.160Z,7.75
2023-02-03T20:39:58.771Z,7.61
2023-02-03T20:42:25.360Z,7.61
2023-02-03T20:44:51.953Z,7.46
2023-02-03T20:47:19.205Z,7.20
2023-02-03T20:49:47.801Z,7.34
2023-02-03T20:52:16.938Z,7.34
2023-02-03T20:54:43.731Z,7.31
2023-02-03T20:57:13.671Z,7.42
2023-02-03T20:59:40.971Z,7.17
2023-02-03T21:02:18.774Z,7.48
2023-02-03T21:04:57.830Z,7.62
2023-02-03T21:07:27.489Z,7.32
2023-02-03T21:09:54.793Z,7.33
2023-02-03T21:12:21.534Z,7.20
2023-02-03T21:14:49.090Z,7.09
2023-02-03T21:17:21.421Z,7.18
2023-02-03T21:19:48.493Z,6.93
2023-02-03T21:22:26.206Z,7.09
2023-02-03T21:24:58.489Z,7.21
2023-02-03T21:27:30.756Z,7.21
2023-02-03T21:29:59.650Z,7.23
2023-02-03T21:32:34.596Z,7.04
2023-02-03T21:35:01.204Z,7.11
2023-02-03T21:37:38.309Z,7.19
2023-02-03T21:40:20.791Z,7.27
2023-02-03T21:42:47.385Z,7.32
2023-02-03T21:45:16.949Z,7.26
2023-02-03T21:47:45.198Z,7.21
2023-02-03T21:50:33.926Z,7.31
2023-02-03T21:53:09.415Z,7.24
2023-02-03T21:55:36.958Z,7.19
2023-02-03T21:58:29.113Z,7.25
2023-02-03T22:00:57.977Z,7.30
2023-02-03T22:03:30.411Z,7.30
2023-02-03T22:06:08.941Z,7.36
2023-02-03T22:08:41.248Z,7.34
2023-02-03T22:11:08.286Z,7.52
2023-02-03T22:13:34.976Z,7.60
2023-02-03T22:16:01.812Z,7.50
2023-02-03T22:18:28.356Z,7.43
2023-02-03T22:20:55.406Z,7.63
2023-02-03T22:23:22.099Z,7.81
2023-02-03T22:25:49.141Z,7.78
2023-02-03T22:28:16.073Z,7.75
2023-02-03T22:30:42.746Z,7.66
2023-02-03T22:33:09.632Z,7.52
2023-02-03T22:35:36.312Z,7.67
2023-02-03T22:38:02.941Z,7.73
2023-02-03T22:40:29.701Z,7.64
2023-02-03T22:42:56.431Z,7.72
2023-02-03T22:45:23.016Z,7.71
2023-02-03T22:47:49.518Z,7.70
2023-02-03T22:50:20.399Z,7.80
2023-02-03T22:52:48.952Z,7.75
2023-02-03T22:55:15.468Z,7.74
2023-02-03T22:57:42.129Z,7.70
2023-02-03T23:00:13.510Z,7.61
2023-02-03T23:02:40.742Z,7.60
2023-02-03T23:05:08.486Z,7.72
2023-02-03T23:07:35.442Z,7.86
2023-02-03T23:10:02.000Z,7.97
2023-02-03T23:12:28.584Z,7.94
2023-02-03T23:14:55.190Z,7.86
2023-02-03T23:17:21.750Z,7.90
2023-02-03T23:19:48.618Z,7.80
2023-02-03T23:22:16.020Z,7.81
2023-02-03T23:24:42.680Z,7.77
2023-02-03T23:27:09.532Z,7.87
2023-02-03T23:29:38.945Z,7.73
2023-02-03T23:32:06.435Z,7.85
2023-02-03T23:34:52.763Z,7.98
2023-02-03T23:37:19.295Z,7.87
2023-02-03T23:39:45.981Z,7.86
2023-02-03T23:42:12.622Z,7.93
2023-02-03T23:44:39.110Z,7.92
2023-02-03T23:47:05.799Z,8.10
2023-02-03T23:49:32.410Z,8.13
2023-02-03T23:51:59.264Z,8.16
2023-02-03T23:54:26.018Z,8.05
2023-02-03T23:56:55.826Z,8.11
2023-02-03T23:59:22.361Z,8.09
